Time;durP1;ratioP1;P1;durP2;ratioP2;P2;SDS_P1;SDS_P2;PMS_P1;PMS_P2;Temp;Humidity;BMP_temperature;BMP_pressure;BME280_temperature;BME280_humidity;BME280_pressure;Samples;Min_cycle;Max_cycle;Signal;HPM_P1;HPM_P2
2022/05/02 00:02:21;;;;;;;7.10;6.40;;;;;;;;;;5027326;28;20822;-54
2022/05/02 00:04:48;;;;;;;7.30;6.70;;;;;;;;;;5028419;28;20190;-54
2022/05/02 00:07:17;;;;;;;6.47;5.83;;;;;;;;;;5009112;28;20728;-55
2022/05/02 00:09:43;;;;;;;6.60;6.00;;;;;;;;;;5012444;28;20201;-54
2022/05/02 00:12:10;;;;;;;6.33;5.83;;;;;;;;;;5027450;28;20181;-55
2022/05/02 00:14:36;;;;;;;6.77;6.27;;;;;;;;;;5012610;28;20196;-53
2022/05/02 00:17:08;;;;;;;6.23;5.73;;;;;;;;;;5027698;28;20584;-54
2022/05/02 00:19:35;;;;;;;7.20;6.53;;;;;;;;;;5028190;28;20188;-55
2022/05/02 00:22:01;;;;;;;6.53;5.93;;;;;;;;;;5009238;28;20290;-53
2022/05/02 00:24:27;;;;;;;6.23;5.73;;;;;;;;;;5028248;28;20584;-54
2022/05/02 00:26:53;;;;;;;8.50;6.30;;;;;;;;;;5028980;28;20220;-54
2022/05/02 00:29:22;;;;;;;6.80;6.13;;;;;;;;;;5041252;28;20246;-54
2022/05/02 00:31:48;;;;;;;6.57;6.03;;;;;;;;;;5027258;28;20197;-54
2022/05/02 00:34:14;;;;;;;6.30;5.47;;;;;;;;;;5025942;28;20253;-54
2022/05/02 00:36:44;;;;;;;8.33;6.33;;;;;;;;;;5027775;28;20193;-54
2022/05/02 00:39:10;;;;;;;7.13;6.43;;;;;;;;;;5028825;28;20182;-53
2022/05/02 00:41:36;;;;;;;6.10;5.50;;;;;;;;;;5011430;28;20189;-54
2022/05/02 00:44:02;;;;;;;6.73;6.13;;;;;;;;;;5011032;28;20755;-53
2022/05/02 00:46:28;;;;;;;7.07;5.90;;;;;;;;;;5028670;28;20647;-53
2022/05/02 00:48:58;;;;;;;9.07;5.87;;;;;;;;;;5007686;28;20186;-55
2022/05/02 00:51:24;;;;;;;6.73;6.23;;;;;;;;;;5008830;28;20539;-54
2022/05/02 00:53:54;;;;;;;6.17;5.60;;;;;;;;;;5026413;28;20186;-55
2022/05/02 00:56:20;;;;;;;6.80;6.20;;;;;;;;;;5003944;28;20269;-54
2022/05/02 00:58:49;;;;;;;7.20;6.40;;;;;;;;;;5024188;28;20699;-54
2022/05/02 01:01:16;;;;;;;7.10;6.50;;;;;;;;;;5000348;28;20210;-54
2022/05/02 01:03:42;;;;;;;7.50;6.87;;;;;;;;;;5008256;28;20632;-54
2022/05/02 01:08:57;;;;;;;6.30;5.70;;;;;;;;;;5025136;28;20729;-54
2022/05/02 01:11:26;;;;;;;6.87;6.23;;;;;;;;;;5028673;28;20186;-54
2022/05/02 01:13:53;;;;;;;7.40;6.70;;;;;;;;;;5009236;28;20174;-54
2022/05/02 01:16:21;;;;;;;7.20;5.97;;;;;;;;;;5009540;28;20229;-54
2022/05/02 01:18:49;;;;;;;6.30;5.80;;;;;;;;;;5024676;28;20508;-54
2022/05/02 01:21:16;;;;;;;7.20;6.60;;;;;;;;;;5029083;28;20645;-54
2022/05/02 01:23:47;;;;;;;6.73;6.00;;;;;;;;;;5022741;28;20204;-54
2022/05/02 01:26:14;;;;;;;6.77;6.17;;;;;;;;;;5027429;28;20225;-54
2022/05/02 01:28:41;;;;;;;7.17;6.53;;;;;;;;;;5008629;28;20211;-54
2022/05/02 01:31:07;;;;;;;6.40;5.80;;;;;;;;;;5027835;28;20189;-54
2022/05/02 01:33:35;;;;;;;7.23;6.63;;;;;;;;;;5024122;28;20272;-54
2022/05/02 01:36:01;;;;;;;6.80;6.23;;;;;;;;;;4991415;28;20186;-54
2022/05/02 01:38:27;;;;;;;6.83;6.17;;;;;;;;;;5009023;28;20210;-54
2022/05/02 01:40:53;;;;;;;7.13;6.53;;;;;;;;;;5010408;28;20189;-54
2022/05/02 01:43:19;;;;;;;7.47;6.80;;;;;;;;;;5008415;28;20513;-54
2022/05/02 01:45:45;;;;;;;7.30;6.60;;;;;;;;;;5009520;28;20209;-54
2022/05/02 01:48:12;;;;;;;6.77;6.07;;;;;;;;;;5008631;28;20304;-54
2022/05/02 01:50:38;;;;;;;7.57;6.97;;;;;;;;;;5027614;28;20217;-54
2022/05/02 01:53:04;;;;;;;7.53;6.57;;;;;;;;;;5020045;28;20209;-54
2022/05/02 01:55:30;;;;;;;6.63;6.07;;;;;;;;;;5025814;28;20667;-54
2022/05/02 01:57:56;;;;;;;7.60;7.00;;;;;;;;;;5024999;28;20558;-54
2022/05/02 02:00:23;;;;;;;6.87;6.17;;;;;;;;;;5009718;28;20185;-54
2022/05/02 02:02:50;;;;;;;7.33;6.60;;;;;;;;;;5026842;28;20174;-54
2022/05/02 02:08:01;;;;;;;7.40;6.70;;;;;;;;;;5018358;28;20185;-54
2022/05/02 02:10:28;;;;;;;8.13;7.43;;;;;;;;;;5026658;28;20225;-54
2022/05/02 02:12:54;;;;;;;7.57;6.63;;;;;;;;;;5025936;28;20228;-54
2022/05/02 02:15:20;;;;;;;8.07;7.00;;;;;;;;;;5009232;28;20181;-54
2022/05/02 02:17:47;;;;;;;7.80;7.00;;;;;;;;;;5009565;28;20201;-54
2022/05/02 02:20:16;;;;;;;8.00;7.30;;;;;;;;;;5006926;28;20683;-54
2022/05/02 02:22:42;;;;;;;7.30;6.60;;;;;;;;;;5029965;28;20181;-54
2022/05/02 02:25:08;;;;;;;7.93;7.20;;;;;;;;;;5025546;28;20547;-54
2022/05/02 02:27:35;;;;;;;6.77;6.27;;;;;;;;;;5026036;28;20194;-55
2022/05/02 02:30:01;;;;;;;7.20;6.60;;;;;;;;;;5008758;28;20181;-54
2022/05/02 02:32:28;;;;;;;8.05;7.35;;;;;;;;;;5006088;28;20403;-54
2022/05/02 02:34:54;;;;;;;7.50;6.63;;;;;;;;;;5007778;28;20244;-54
2022/05/02 02:37:20;;;;;;;7.03;6.40;;;;;;;;;;5025472;28;20191;-54
2022/05/02 02:39:48;;;;;;;7.97;7.27;;;;;;;;;;4991144;28;20572;-54
2022/05/02 02:42:15;;;;;;;11.57;7.50;;;;;;;;;;5026828;28;20221;-54
2022/05/02 02:44:42;;;;;;;7.73;7.13;;;;;;;;;;5007958;28;20548;-54
2022/05/02 02:47:08;;;;;;;7.07;6.47;;;;;;;;;;5006700;28;20258;-54
2022/05/02 02:49:34;;;;;;;8.13;7.43;;;;;;;;;;5025726;28;20204;-54
2022/05/02 02:52:00;;;;;;;8.03;7.23;;;;;;;;;;5008839;28;20194;-54
2022/05/02 02:54:27;;;;;;;7.30;6.60;;;;;;;;;;5027630;28;20182;-54
2022/05/02 02:56:53;;;;;;;8.30;7.60;;;;;;;;;;5027976;28;20178;-54
2022/05/02 02:59:19;;;;;;;8.83;8.17;;;;;;;;;;5027358;28;20182;-54
2022/05/02 03:01:46;;;;;;;8.57;7.77;;;;;;;;;;5027826;28;20616;-54
2022/05/02 03:06:58;;;;;;;8.17;7.40;;;;;;;;;;5021109;28;20260;-54
2022/05/02 03:09:25;;;;;;;8.00;7.20;;;;;;;;;;5009481;28;20273;-54
2022/05/02 03:11:51;;;;;;;8.73;7.60;;;;;;;;;;5009684;28;20185;-54
2022/05/02 03:14:17;;;;;;;7.63;6.93;;;;;;;;;;5008623;28;20185;-54
2022/05/02 03:16:43;;;;;;;28.13;26.57;;;;;;;;;;5027847;28;20209;-54
2022/05/02 03:19:09;;;;;;;8.03;7.23;;;;;;;;;;5026324;28;20291;-54
2022/05/02 03:21:35;;;;;;;8.23;6.73;;;;;;;;;;5030928;28;20186;-54
2022/05/02 03:24:02;;;;;;;6.90;6.27;;;;;;;;;;5027364;28;20182;-54
2022/05/02 03:26:29;;;;;;;7.10;6.50;;;;;;;;;;5014136;28;20209;-54
2022/05/02 03:28:55;;;;;;;8.13;7.43;;;;;;;;;;5012491;28;20185;-54
2022/05/02 03:31:25;;;;;;;7.43;6.83;;;;;;;;;;5031478;28;20309;-54
2022/05/02 03:33:57;;;;;;;8.47;7.77;;;;;;;;;;5000051;28;20715;-54
2022/05/02 03:36:23;;;;;;;7.30;6.67;;;;;;;;;;5011194;28;20178;-54
2022/05/02 03:38:50;;;;;;;7.10;6.50;;;;;;;;;;5008337;28;20601;-54
2022/05/02 03:41:16;;;;;;;12.53;11.73;;;;;;;;;;5006850;28;20193;-54
2022/05/02 03:43:43;;;;;;;9.87;8.97;;;;;;;;;;5009135;28;20800;-54
2022/05/02 03:46:09;;;;;;;8.23;7.30;;;;;;;;;;4994333;28;20202;-54
2022/05/02 03:48:35;;;;;;;7.93;7.23;;;;;;;;;;5009869;28;20637;-52
2022/05/02 03:51:01;;;;;;;8.10;7.40;;;;;;;;;;4993127;28;20187;-52
2022/05/02 03:53:28;;;;;;;7.23;6.60;;;;;;;;;;5008694;28;20537;-52
2022/05/02 03:55:54;;;;;;;8.40;7.57;;;;;;;;;;4989625;28;20270;-53
2022/05/02 03:58:20;;;;;;;9.07;8.33;;;;;;;;;;5010160;28;20246;-53
2022/05/02 04:00:48;;;;;;;7.90;7.20;;;;;;;;;;4993936;28;20184;-53
2022/05/02 04:03:14;;;;;;;12.20;11.30;;;;;;;;;;4992346;28;20551;-52
2022/05/02 04:05:41;;;;;;;8.10;7.40;;;;;;;;;;4991318;28;20202;-53
2022/05/02 04:08:10;;;;;;;8.13;6.97;;;;;;;;;;5008189;28;20175;-53
2022/05/02 04:10:37;;;;;;;8.13;7.43;;;;;;;;;;5010872;28;20201;-53
2022/05/02 04:13:03;;;;;;;7.30;6.70;;;;;;;;;;4983099;28;20543;-54
2022/05/02 04:15:29;;;;;;;8.10;7.37;;;;;;;;;;5008350;28;20226;-54
2022/05/02 04:17:58;;;;;;;7.77;7.00;;;;;;;;;;5010733;28;20704;-54
2022/05/02 04:20:24;;;;;;;7.37;6.77;;;;;;;;;;4999728;28;20211;-54
2022/05/02 04:22:50;;;;;;;7.73;7.03;;;;;;;;;;4992919;28;20730;-53
2022/05/02 04:25:17;;;;;;;12.73;11.83;;;;;;;;;;5008778;28;20273;-53
2022/05/02 04:27:43;;;;;;;7.70;7.00;;;;;;;;;;4992522;28;20191;-54
2022/05/02 04:30:10;;;;;;;8.53;7.73;;;;;;;;;;4995551;28;20175;-54
2022/05/02 04:32:36;;;;;;;7.33;6.63;;;;;;;;;;5008365;28;20195;-54
2022/05/02 04:35:03;;;;;;;7.90;7.10;;;;;;;;;;5028856;28;20191;-54
2022/05/02 04:37:32;;;;;;;7.50;6.90;;;;;;;;;;5011463;28;20182;-54
2022/05/02 04:39:58;;;;;;;7.67;6.80;;;;;;;;;;5028781;28;20257;-54
2022/05/02 04:42:24;;;;;;;7.23;6.43;;;;;;;;;;5028789;28;20271;-52
2022/05/02 04:44:51;;;;;;;8.37;7.60;;;;;;;;;;5026471;28;20210;-53
2022/05/02 04:47:17;;;;;;;7.60;6.90;;;;;;;;;;5029698;28;20596;-53
2022/05/02 04:49:47;;;;;;;8.63;7.83;;;;;;;;;;5027970;28;20269;-54
2022/05/02 04:52:13;;;;;;;9.27;8.67;;;;;;;;;;5011812;28;20194;-54
2022/05/02 04:54:39;;;;;;;8.20;7.50;;;;;;;;;;5011260;28;20652;-54
2022/05/02 04:57:05;;;;;;;7.37;6.77;;;;;;;;;;5011851;28;20179;-54
2022/05/02 04:59:32;;;;;;;8.17;7.30;;;;;;;;;;5028803;28;20671;-53
2022/05/02 05:01:58;;;;;;;8.70;7.80;;;;;;;;;;5011971;28;20547;-53
2022/05/02 05:04:25;;;;;;;7.80;7.00;;;;;;;;;;5026823;28;20697;-53
2022/05/02 05:06:51;;;;;;;7.80;6.63;;;;;;;;;;5026862;28;20217;-53
2022/05/02 05:09:18;;;;;;;7.67;6.97;;;;;;;;;;5011113;28;20239;-53
2022/05/02 05:12:01;;;;;;;7.60;6.90;;;;;;;;;;5027333;28;20166;-53
2022/05/02 05:17:46;;;;;;;7.77;6.97;;;;;;;;;;5027488;28;20275;-53
2022/05/02 05:20:31;;;;;;;7.77;7.07;;;;;;;;;;5026154;28;20186;-54
2022/05/02 05:23:17;;;;;;;7.57;6.87;;;;;;;;;;5002667;28;20704;-53
2022/05/02 05:25:50;;;;;;;7.83;7.13;;;;;;;;;;5022206;28;20186;-54
2022/05/02 05:28:33;;;;;;;8.50;7.40;;;;;;;;;;5021932;28;20205;-54
2022/05/02 05:31:19;;;;;;;7.97;7.17;;;;;;;;;;5003396;28;20569;-54
2022/05/02 05:34:05;;;;;;;7.13;6.23;;;;;;;;;;5004371;28;20964;-54
2022/05/02 05:36:49;;;;;;;8.17;7.37;;;;;;;;;;5023970;28;20188;-54
2022/05/02 05:39:36;;;;;;;9.37;7.33;;;;;;;;;;5020120;28;20243;-53
2022/05/02 05:42:10;;;;;;;7.43;6.73;;;;;;;;;;5022832;28;20186;-53
2022/05/02 05:45:03;;;;;;;9.10;7.40;;;;;;;;;;5025155;28;20556;-53
2022/05/02 05:47:52;;;;;;;7.97;7.17;;;;;;;;;;5003988;28;20240;-53
2022/05/02 05:50:23;;;;;;;7.63;6.93;;;;;;;;;;5007585;28;20212;-53
2022/05/02 05:52:50;;;;;;;6.90;6.30;;;;;;;;;;5006725;28;20185;-53
2022/05/02 05:55:27;;;;;;;8.10;7.40;;;;;;;;;;5009130;28;20182;-53
2022/05/02 05:58:11;;;;;;;8.23;7.53;;;;;;;;;;5009999;28;20556;-53
2022/05/02 06:00:44;;;;;;;8.60;7.53;;;;;;;;;;5008158;28;20190;-54
2022/05/02 06:03:17;;;;;;;7.53;6.83;;;;;;;;;;5017122;28;20688;-54
2022/05/02 06:05:44;;;;;;;8.47;7.67;;;;;;;;;;5027682;28;20209;-53
2022/05/02 06:08:18;;;;;;;8.10;7.40;;;;;;;;;;5009043;28;20186;-54
2022/05/02 06:10:46;;;;;;;7.97;7.13;;;;;;;;;;5027022;28;20177;-54
2022/05/02 06:13:15;;;;;;;8.90;8.10;;;;;;;;;;5024633;28;20183;-53
2022/05/02 06:18:30;;;;;;;9.17;8.37;;;;;;;;;;5004195;28;20243;-53
2022/05/02 06:21:00;;;;;;;8.43;7.73;;;;;;;;;;5027846;28;20178;-53
2022/05/02 06:23:28;;;;;;;11.03;8.10;;;;;;;;;;5028033;28;20656;-53
2022/05/02 06:25:55;;;;;;;8.40;7.60;;;;;;;;;;5028035;28;20204;-53
2022/05/02 06:28:27;;;;;;;9.07;8.13;;;;;;;;;;5010099;28;20266;-53
2022/05/02 06:30:56;;;;;;;8.60;7.90;;;;;;;;;;5027945;28;20663;-53
2022/05/02 06:33:23;;;;;;;9.10;7.77;;;;;;;;;;5008669;28;20822;-53
2022/05/02 06:35:59;;;;;;;9.33;8.43;;;;;;;;;;5008275;28;20178;-53
2022/05/02 06:38:43;;;;;;;8.30;7.50;;;;;;;;;;5019454;28;20535;-57
2022/05/02 06:41:35;;;;;;;9.20;8.17;;;;;;;;;;5010844;28;20536;-54
2022/05/02 06:44:20;;;;;;;10.27;9.27;;;;;;;;;;5023953;28;20178;-54
2022/05/02 06:46:57;;;;;;;9.50;8.57;;;;;;;;;;5009355;28;20194;-53
2022/05/02 06:49:27;;;;;;;8.37;7.67;;;;;;;;;;5008450;28;20188;-53
2022/05/02 06:51:57;;;;;;;8.90;8.10;;;;;;;;;;5009527;28;20180;-53
2022/05/02 06:54:42;;;;;;;9.63;8.63;;;;;;;;;;5006842;28;20182;-54
2022/05/02 06:57:15;;;;;;;9.07;8.23;;;;;;;;;;5025612;28;20655;-54
2022/05/02 06:59:53;;;;;;;10.03;8.87;;;;;;;;;;5009964;28;20189;-54
2022/05/02 07:02:35;;;;;;;12.80;9.20;;;;;;;;;;5008962;28;20678;-53
2022/05/02 07:05:28;;;;;;;10.97;9.80;;;;;;;;;;5008408;28;20198;-53
2022/05/02 07:08:18;;;;;;;10.90;9.20;;;;;;;;;;5005096;28;20591;-53
2022/05/02 07:10:44;;;;;;;9.20;8.23;;;;;;;;;;5010227;28;20184;-53
2022/05/02 07:13:15;;;;;;;9.33;8.43;;;;;;;;;;5009344;28;20190;-54
2022/05/02 07:15:45;;;;;;;10.90;8.97;;;;;;;;;;5008681;28;20684;-54
2022/05/02 07:18:17;;;;;;;10.00;8.80;;;;;;;;;;5026389;28;20811;-54
2022/05/02 07:20:52;;;;;;;10.17;9.13;;;;;;;;;;5009314;28;20717;-54
2022/05/02 07:23:28;;;;;;;10.83;9.17;;;;;;;;;;5007820;28;20192;-54
2022/05/02 07:25:58;;;;;;;12.70;8.97;;;;;;;;;;5027299;28;20263;-54
2022/05/02 07:28:31;;;;;;;9.53;8.43;;;;;;;;;;5009706;28;20217;-53
2022/05/02 07:30:58;;;;;;;11.13;8.50;;;;;;;;;;5026665;28;20253;-54
2022/05/02 07:33:27;;;;;;;9.07;7.70;;;;;;;;;;5007216;28;20237;-54
2022/05/02 07:35:54;;;;;;;9.80;8.83;;;;;;;;;;5009063;28;20178;-53
2022/05/02 07:38:21;;;;;;;9.00;8.10;;;;;;;;;;5026490;28;20177;-53
2022/05/02 07:43:34;;;;;;;12.73;9.07;;;;;;;;;;5003272;28;20268;-54
2022/05/02 07:46:03;;;;;;;9.20;8.30;;;;;;;;;;5026171;28;20624;-54
2022/05/02 07:48:31;;;;;;;8.50;7.70;;;;;;;;;;5017726;28;20269;-53
2022/05/02 07:50:57;;;;;;;10.73;8.27;;;;;;;;;;5026564;28;20669;-54
2022/05/02 07:53:25;;;;;;;11.20;10.17;;;;;;;;;;5026643;28;20540;-53
2022/05/02 07:55:56;;;;;;;9.80;8.67;;;;;;;;;;5027030;28;20180;-54
2022/05/02 07:58:25;;;;;;;8.87;7.97;;;;;;;;;;5001499;28;20264;-54
2022/05/02 08:00:52;;;;;;;12.03;8.93;;;;;;;;;;5026413;28;20636;-53
2022/05/02 08:03:23;;;;;;;9.00;6.80;;;;;;;;;;5025443;28;20174;-55
2022/05/02 08:05:52;;;;;;;8.47;7.73;;;;;;;;;;4992984;28;20232;-54
2022/05/02 08:08:25;;;;;;;9.43;8.43;;;;;;;;;;5029736;28;20205;-54
2022/05/02 08:11:20;;;;;;;7.73;7.03;;;;;;;;;;5013409;28;20239;-54
2022/05/02 08:13:58;;;;;;;8.53;7.67;;;;;;;;;;5012052;28;20205;-54
2022/05/02 08:16:26;;;;;;;8.50;7.70;;;;;;;;;;4997066;28;20709;-54
2022/05/02 08:19:03;;;;;;;8.90;7.77;;;;;;;;;;5011373;28;20552;-54
2022/05/02 08:21:42;;;;;;;7.67;6.90;;;;;;;;;;5012959;28;20181;-54
2022/05/02 08:30:07;;;;;;;7.13;6.53;;;;;;;;;;5005857;28;20189;-53
2022/05/02 08:32:52;;;;;;;9.90;8.27;;;;;;;;;;5021675;28;20566;-54
2022/05/02 08:35:24;;;;;;;8.30;7.60;;;;;;;;;;5005440;28;20734;-54
2022/05/02 08:37:50;;;;;;;9.03;7.77;;;;;;;;;;5024600;28;20181;-54
2022/05/02 08:40:35;;;;;;;7.77;7.00;;;;;;;;;;5011650;28;20192;-54
2022/05/02 08:43:02;;;;;;;7.87;7.17;;;;;;;;;;5017490;28;20190;-55
2022/05/02 08:45:44;;;;;;;7.90;7.20;;;;;;;;;;5011911;28;20181;-54
2022/05/02 08:48:22;;;;;;;7.47;6.67;;;;;;;;;;5008870;28;20247;-54
2022/05/02 08:50:52;;;;;;;8.23;6.57;;;;;;;;;;5026241;28;20186;-54
2022/05/02 08:53:21;;;;;;;8.50;7.70;;;;;;;;;;5011170;28;20177;-54
2022/05/02 08:55:49;;;;;;;8.07;7.27;;;;;;;;;;5027903;28;20695;-54
2022/05/02 08:58:37;;;;;;;7.63;6.93;;;;;;;;;;5014984;28;20185;-54
2022/05/02 09:01:38;;;;;;;7.77;6.97;;;;;;;;;;5011046;28;20190;-55
2022/05/02 09:04:23;;;;;;;10.27;6.57;;;;;;;;;;4922085;29;20875;-54
2022/05/02 09:07:11;;;;;;;8.60;7.80;;;;;;;;;;5000034;28;20213;-54
2022/05/02 09:09:53;;;;;;;7.63;6.90;;;;;;;;;;5009955;28;20208;-54
2022/05/02 09:12:40;;;;;;;8.47;7.57;;;;;;;;;;5027177;28;20186;-55
2022/05/02 09:15:12;;;;;;;7.47;6.77;;;;;;;;;;5007927;28;20239;-54
2022/05/02 09:17:58;;;;;;;9.17;7.00;;;;;;;;;;5024995;28;20620;-54
2022/05/02 09:20:43;;;;;;;7.90;7.20;;;;;;;;;;5006263;28;20656;-54
2022/05/02 09:23:24;;;;;;;7.47;6.70;;;;;;;;;;5028651;28;20631;-54
2022/05/02 09:26:09;;;;;;;8.37;7.57;;;;;;;;;;5029578;28;20652;-58
2022/05/02 09:29:07;;;;;;;6.73;6.13;;;;;;;;;;5009660;28;20186;-54
2022/05/02 09:31:37;;;;;;;8.43;6.20;;;;;;;;;;5008272;28;20425;-54
2022/05/02 09:34:19;;;;;;;8.43;6.93;;;;;;;;;;5023299;28;20217;-54
2022/05/02 09:36:53;;;;;;;7.60;6.90;;;;;;;;;;5008037;28;20235;-54
2022/05/02 09:39:27;;;;;;;9.77;6.80;;;;;;;;;;5027214;28;20201;-54
2022/05/02 09:42:02;;;;;;;7.80;7.00;;;;;;;;;;5023551;28;20669;-54
2022/05/02 09:50:35;;;;;;;6.43;5.93;;;;;;;;;;5028913;28;20548;-56
2022/05/02 09:53:22;;;;;;;7.23;6.63;;;;;;;;;;5008967;28;20575;-54
2022/05/02 09:58:43;;;;;;;8.80;6.20;;;;;;;;;;5032370;28;20221;-54
2022/05/02 10:01:22;;;;;;;9.10;6.90;;;;;;;;;;5009615;28;20210;-55
2022/05/02 10:04:08;;;;;;;6.93;6.23;;;;;;;;;;5020236;28;20282;-55
2022/05/02 10:06:43;;;;;;;6.97;6.27;;;;;;;;;;5022920;28;20680;-55
2022/05/02 10:09:22;;;;;;;7.03;6.40;;;;;;;;;;5025314;28;20185;-55
2022/05/02 10:12:10;;;;;;;7.60;6.90;;;;;;;;;;5026241;28;20182;-55
2022/05/02 10:14:48;;;;;;;7.27;6.57;;;;;;;;;;5010635;28;20490;-55
2022/05/02 10:17:18;;;;;;;7.00;6.37;;;;;;;;;;5026682;28;20197;-55
2022/05/02 10:20:04;;;;;;;6.80;6.20;;;;;;;;;;5007910;28;20190;-55
2022/05/02 10:22:31;;;;;;;7.03;6.33;;;;;;;;;;5016934;28;20189;-54
2022/05/02 10:25:03;;;;;;;6.77;6.03;;;;;;;;;;5025527;28;20186;-55
2022/05/02 10:27:32;;;;;;;6.53;5.93;;;;;;;;;;5026336;28;20244;-55
2022/05/02 10:30:05;;;;;;;7.10;6.50;;;;;;;;;;5006321;28;20186;-55
2022/05/02 10:32:37;;;;;;;7.23;5.70;;;;;;;;;;5001091;28;20219;-55
2022/05/02 10:35:07;;;;;;;6.47;5.87;;;;;;;;;;5023208;28;20209;-56
2022/05/02 10:37:35;;;;;;;6.80;6.20;;;;;;;;;;5026227;28;20277;-55
2022/05/02 10:40:10;;;;;;;6.43;5.83;;;;;;;;;;5008953;28;20312;-55
2022/05/02 10:42:36;;;;;;;6.90;6.27;;;;;;;;;;5013274;28;20575;-55
2022/05/02 10:45:09;;;;;;;6.70;5.90;;;;;;;;;;5029014;28;20290;-55
2022/05/02 10:47:47;;;;;;;6.50;5.93;;;;;;;;;;5023783;28;20206;-55
2022/05/02 10:50:34;;;;;;;6.83;6.23;;;;;;;;;;5020768;28;20646;-55
2022/05/02 10:53:14;;;;;;;6.90;6.30;;;;;;;;;;5001451;28;20182;-55
2022/05/02 10:55:50;;;;;;;6.73;5.93;;;;;;;;;;5026825;28;20530;-55
2022/05/02 10:58:18;;;;;;;6.27;5.67;;;;;;;;;;5023442;28;20717;-55
2022/05/02 11:00:51;;;;;;;7.30;6.60;;;;;;;;;;5028166;28;20253;-55
2022/05/02 11:03:20;;;;;;;7.27;6.57;;;;;;;;;;5011514;28;20193;-55
2022/05/02 11:06:16;;;;;;;6.80;6.10;;;;;;;;;;5027296;28;20865;-55
2022/05/02 11:08:53;;;;;;;7.30;6.70;;;;;;;;;;4923798;28;20601;-55
2022/05/02 11:11:34;;;;;;;8.30;7.50;;;;;;;;;;5027055;28;20170;-56
2022/05/02 11:14:10;;;;;;;9.90;8.50;;;;;;;;;;5008850;28;20188;-56
2022/05/02 11:17:00;;;;;;;8.27;7.57;;;;;;;;;;5004568;28;20403;-55
2022/05/02 11:22:23;;;;;;;8.03;6.90;;;;;;;;;;5025959;28;20196;-55
2022/05/02 11:25:15;;;;;;;7.43;6.70;;;;;;;;;;5024358;28;20220;-55
2022/05/02 11:28:07;;;;;;;8.50;7.70;;;;;;;;;;5000826;28;20202;-55
2022/05/02 11:30:55;;;;;;;7.53;6.93;;;;;;;;;;4975854;28;20631;-55
2022/05/02 11:33:37;;;;;;;8.33;6.60;;;;;;;;;;5025067;28;20786;-55
2022/05/02 11:36:07;;;;;;;7.70;7.07;;;;;;;;;;5027578;28;20350;-55
2022/05/02 11:38:36;;;;;;;7.37;6.67;;;;;;;;;;5020538;28;20185;-55
2022/05/02 11:41:05;;;;;;;8.53;7.00;;;;;;;;;;5008551;28;20180;-55
2022/05/02 11:43:32;;;;;;;7.63;6.93;;;;;;;;;;5030520;28;20183;-55
2022/05/02 11:46:18;;;;;;;9.43;7.17;;;;;;;;;;5031659;28;20764;-55
2022/05/02 11:49:04;;;;;;;8.40;7.47;;;;;;;;;;5029563;28;20181;-55
2022/05/02 11:51:30;;;;;;;8.40;7.60;;;;;;;;;;5013182;28;20181;-55
2022/05/02 11:53:58;;;;;;;6.90;6.30;;;;;;;;;;5012195;28;20721;-55
2022/05/02 11:56:31;;;;;;;7.60;6.93;;;;;;;;;;5008554;28;20182;-55
2022/05/02 11:59:04;;;;;;;7.70;7.00;;;;;;;;;;5007842;28;20271;-56
2022/05/02 12:01:38;;;;;;;8.83;8.00;;;;;;;;;;5026529;28;20191;-56
2022/05/02 12:04:04;;;;;;;8.27;7.60;;;;;;;;;;5010388;28;20186;-55
2022/05/02 12:06:37;;;;;;;10.20;7.00;;;;;;;;;;5011301;28;20195;-55
2022/05/02 12:09:04;;;;;;;6.93;6.40;;;;;;;;;;5000085;28;20186;-55
2022/05/02 12:11:32;;;;;;;6.60;6.00;;;;;;;;;;5028693;28;20183;-55
2022/05/02 12:13:59;;;;;;;6.90;6.40;;;;;;;;;;5011246;28;20298;-55
2022/05/02 12:16:27;;;;;;;7.17;6.47;;;;;;;;;;5031006;28;20179;-55
2022/05/02 12:18:54;;;;;;;7.03;6.33;;;;;;;;;;4981828;28;20262;-55
2022/05/02 12:21:20;;;;;;;11.50;10.63;;;;;;;;;;5006050;28;20192;-55
2022/05/02 12:23:48;;;;;;;6.63;6.13;;;;;;;;;;5017237;28;20180;-55
2022/05/02 12:26:21;;;;;;;6.73;6.13;;;;;;;;;;5030870;28;20236;-55
2022/05/02 12:28:51;;;;;;;7.30;6.70;;;;;;;;;;5022873;28;20180;-55
2022/05/02 12:31:22;;;;;;;6.70;6.10;;;;;;;;;;5029770;28;20189;-55
2022/05/02 12:33:50;;;;;;;7.67;6.87;;;;;;;;;;5001084;28;20232;-55
2022/05/02 12:36:18;;;;;;;8.20;7.40;;;;;;;;;;4990918;28;20189;-55
2022/05/02 12:38:50;;;;;;;6.87;6.37;;;;;;;;;;4990295;28;20276;-56
2022/05/02 12:41:22;;;;;;;7.50;6.80;;;;;;;;;;4991987;28;20185;-55
2022/05/02 12:43:52;;;;;;;7.50;6.90;;;;;;;;;;5000594;28;20933;-55
2022/05/02 12:46:19;;;;;;;7.70;7.00;;;;;;;;;;4997269;28;20412;-55
2022/05/02 12:49:02;;;;;;;7.83;7.13;;;;;;;;;;5005400;28;20404;-55
2022/05/02 12:51:31;;;;;;;7.63;6.77;;;;;;;;;;4991185;28;20205;-55
2022/05/02 12:54:13;;;;;;;7.33;6.70;;;;;;;;;;4991891;28;20199;-55
2022/05/02 13:02:35;;;;;;;6.93;6.23;;;;;;;;;;5006375;28;20298;-55
2022/05/02 13:05:05;;;;;;;6.80;6.17;;;;;;;;;;4989801;28;20694;-54
2022/05/02 13:07:37;;;;;;;6.90;6.33;;;;;;;;;;5008648;28;20667;-54
2022/05/02 13:10:05;;;;;;;7.07;6.47;;;;;;;;;;4973040;28;20540;-55
2022/05/02 13:12:32;;;;;;;8.30;7.57;;;;;;;;;;5001284;28;20190;-55
2022/05/02 13:15:00;;;;;;;7.37;6.67;;;;;;;;;;4990269;28;20179;-56
2022/05/02 13:17:29;;;;;;;6.87;6.27;;;;;;;;;;4989784;28;20186;-54
2022/05/02 13:19:56;;;;;;;7.40;6.80;;;;;;;;;;4981436;28;20241;-54
2022/05/02 13:22:22;;;;;;;6.73;6.13;;;;;;;;;;4991120;28;20273;-55
2022/05/02 13:24:52;;;;;;;7.63;6.93;;;;;;;;;;4989478;28;20459;-57
2022/05/02 13:27:26;;;;;;;7.60;6.30;;;;;;;;;;5010183;28;20203;-58
2022/05/02 13:29:57;;;;;;;6.87;6.33;;;;;;;;;;4991326;28;20182;-57
2022/05/02 13:32:30;;;;;;;6.87;6.33;;;;;;;;;;4982543;28;20198;-58
2022/05/02 13:35:10;;;;;;;8.73;6.67;;;;;;;;;;4983787;28;20219;-57
2022/05/02 13:37:43;;;;;;;5.77;5.27;;;;;;;;;;5006936;28;20186;-58
2022/05/02 13:40:13;;;;;;;6.03;5.53;;;;;;;;;;5008457;28;20241;-58
2022/05/02 13:43:01;;;;;;;7.27;6.67;;;;;;;;;;5015816;28;20175;-58
2022/05/02 13:45:43;;;;;;;6.20;5.70;;;;;;;;;;5008197;28;20186;-58
2022/05/02 13:48:24;;;;;;;6.43;5.93;;;;;;;;;;5007839;28;20225;-57
2022/05/02 13:51:19;;;;;;;8.50;6.10;;;;;;;;;;4989165;28;20226;-58
2022/05/02 13:53:48;;;;;;;6.83;6.20;;;;;;;;;;5008413;28;20191;-57
2022/05/02 13:56:36;;;;;;;6.57;5.97;;;;;;;;;;5009636;28;20240;-58
2022/05/02 13:59:04;;;;;;;6.53;6.03;;;;;;;;;;4984294;28;20186;-57
2022/05/02 14:01:52;;;;;;;6.70;6.17;;;;;;;;;;5004865;28;20707;-57
2022/05/02 14:07:14;;;;;;;5.73;5.30;;;;;;;;;;4994379;28;20214;-58
2022/05/02 14:09:55;;;;;;;6.70;6.20;;;;;;;;;;5006260;28;20199;-58
2022/05/02 14:12:25;;;;;;;23.77;9.10;;;;;;;;;;5002773;28;20219;-59
2022/05/02 14:14:57;;;;;;;12.20;7.90;;;;;;;;;;4982854;28;20183;-57
2022/05/02 14:17:31;;;;;;;8.57;6.30;;;;;;;;;;4998511;28;20216;-57
2022/05/02 14:20:14;;;;;;;10.17;6.43;;;;;;;;;;4998207;28;20221;-57
2022/05/02 14:22:45;;;;;;;6.03;5.57;;;;;;;;;;4985684;28;20185;-59
2022/05/02 14:25:26;;;;;;;7.50;6.77;;;;;;;;;;5004308;28;20270;-58
2022/05/02 14:27:53;;;;;;;7.97;6.10;;;;;;;;;;4984402;28;20353;-58
2022/05/02 14:30:24;;;;;;;7.40;6.20;;;;;;;;;;4991603;28;20659;-58
2022/05/02 14:32:50;;;;;;;7.43;6.20;;;;;;;;;;5001254;28;20195;-59
2022/05/02 14:35:26;;;;;;;7.77;6.57;;;;;;;;;;5021375;28;20189;-58
2022/05/02 14:37:54;;;;;;;6.93;6.37;;;;;;;;;;5003567;28;20193;-58
2022/05/02 14:40:20;;;;;;;7.30;6.70;;;;;;;;;;5028429;28;20714;-56
2022/05/02 14:42:47;;;;;;;7.77;7.17;;;;;;;;;;5023047;28;20190;-56
2022/05/02 14:45:18;;;;;;;8.13;6.83;;;;;;;;;;5005571;28;20185;-55
2022/05/02 14:47:46;;;;;;;10.97;7.53;;;;;;;;;;5019594;28;20206;-54
2022/05/02 14:50:13;;;;;;;7.77;7.07;;;;;;;;;;4983740;28;20639;-55
2022/05/02 14:52:40;;;;;;;7.77;7.13;;;;;;;;;;5025156;28;20553;-55
2022/05/02 14:55:10;;;;;;;7.37;6.77;;;;;;;;;;5025980;28;20197;-56
2022/05/02 14:57:43;;;;;;;9.93;7.13;;;;;;;;;;5023409;28;20182;-56
2022/05/02 15:00:12;;;;;;;6.87;6.13;;;;;;;;;;5024287;28;20183;-55
2022/05/02 15:02:40;;;;;;;7.43;6.63;;;;;;;;;;4991416;28;20179;-55
2022/05/02 15:05:11;;;;;;;7.77;6.97;;;;;;;;;;5007175;28;20541;-56
2022/05/02 15:07:48;;;;;;;6.67;6.17;;;;;;;;;;5025321;28;20575;-55
2022/05/02 15:10:24;;;;;;;11.50;7.93;;;;;;;;;;5007776;28;20783;-55
2022/05/02 15:13:03;;;;;;;7.87;7.07;;;;;;;;;;5026448;28;20234;-55
2022/05/02 15:15:35;;;;;;;10.77;7.83;;;;;;;;;;5009940;28;20180;-55
2022/05/02 15:18:05;;;;;;;9.27;7.57;;;;;;;;;;5021847;28;20266;-55
2022/05/02 15:20:37;;;;;;;8.07;7.27;;;;;;;;;;5030862;28;20182;-55
2022/05/02 15:23:08;;;;;;;7.37;6.80;;;;;;;;;;5031314;28;20196;-55
2022/05/02 15:25:34;;;;;;;8.10;7.27;;;;;;;;;;5031950;28;20240;-55
2022/05/02 15:36:39;;;;;;;9.27;7.53;;;;;;;;;;5028604;28;20406;-57
2022/05/02 15:39:06;;;;;;;7.40;6.67;;;;;;;;;;5030519;28;20220;-57
2022/05/02 15:41:47;;;;;;;6.93;6.33;;;;;;;;;;5031642;28;20351;-57
2022/05/02 15:44:19;;;;;;;5.97;5.40;;;;;;;;;;5018810;28;20198;-57
2022/05/02 15:46:46;;;;;;;6.27;5.70;;;;;;;;;;5031210;28;20226;-57
2022/05/02 15:49:12;;;;;;;7.37;6.40;;;;;;;;;;5010954;28;20187;-57
2022/05/02 15:51:45;;;;;;;6.23;5.67;;;;;;;;;;5030425;28;20616;-57
2022/05/02 15:54:21;;;;;;;6.93;6.33;;;;;;;;;;5012773;28;20179;-58
2022/05/02 15:57:06;;;;;;;6.63;6.03;;;;;;;;;;5009723;28;20340;-58
2022/05/02 15:59:36;;;;;;;8.47;7.60;;;;;;;;;;5002219;28;20244;-58
2022/05/02 16:02:03;;;;;;;7.23;6.53;;;;;;;;;;5004661;28;20217;-58